Time;durP1;ratioP1;P1;durP2;ratioP2;P2;SDS_P1;SDS_P2;PMS_P1;PMS_P2;Temp;Humidity;BMP_temperature;BMP_pressure;BME280_temperature;BME280_humidity;BME280_pressure;Samples;Min_cycle;Max_cycle;Signal;HPM_P1;HPM_P2
2023/02/11 00:01:33;;;;;;;;;;;;;;;6.12;100.00;103310.75;10456209;28;19925;-69
2023/02/11 00:06:35;;;;;;;;;;;;;;;6.20;100.00;103305.53;10456909;28;19947;-69
2023/02/11 00:11:37;;;;;;;;;;;;;;;6.13;100.00;103294.25;10456684;28;20027;-70
2023/02/11 00:16:40;;;;;;;;;;;;;;;6.22;100.00;103301.22;10457198;28;19920;-69
2023/02/11 00:21:42;;;;;;;;;;;;;;;6.16;100.00;103302.94;10455319;28;19927;-70
2023/02/11 00:26:44;;;;;;;;;;;;;;;6.04;100.00;103294.25;10456404;28;19920;-69
2023/02/11 00:31:47;;;;;;;;;;;;;;;6.19;100.00;103303.81;10457120;28;19924;-70
2023/02/11 00:36:50;;;;;;;;;;;;;;;6.14;100.00;103289.94;10456287;28;20370;-69
2023/02/11 00:41:52;;;;;;;;;;;;;;;6.00;100.00;103284.72;10459662;28;20338;-68
2023/02/11 00:46:55;;;;;;;;;;;;;;;6.15;100.00;103294.25;10464410;28;19921;-69
2023/02/11 00:51:57;;;;;;;;;;;;;;;6.11;100.00;103305.53;10464668;28;19928;-69
2023/02/11 00:56:59;;;;;;;;;;;;;;;6.16;100.00;103301.22;10463724;28;19935;-69
2023/02/11 01:02:01;;;;;;;;;;;;;;;6.25;100.00;103305.53;10462840;28;20375;-69
2023/02/11 01:07:04;;;;;;;;;;;;;;;6.11;100.00;103308.13;10461451;28;19920;-68
2023/02/11 01:12:06;;;;;;;;;;;;;;;6.25;100.00;103305.53;10464084;28;19920;-69
2023/02/11 01:17:09;;;;;;;;;;;;;;;6.29;100.00;103309.91;10463781;28;19925;-69
2023/02/11 01:22:11;;;;;;;;;;;;;;;6.16;100.00;103288.19;10462332;28;19920;-69
2023/02/11 01:27:13;;;;;;;;;;;;;;;6.18;100.00;103288.22;10462259;28;19927;-69
2023/02/11 01:32:15;;;;;;;;;;;;;;;6.09;100.00;103276.94;10463136;28;19939;-69
2023/02/11 01:37:17;;;;;;;;;;;;;;;6.07;100.00;103269.97;10461609;28;19924;-69
2023/02/11 01:42:21;;;;;;;;;;;;;;;6.01;100.00;103255.25;10445137;28;19943;-68
2023/02/11 01:47:23;;;;;;;;;;;;;;;5.98;100.00;103252.63;10460904;28;19927;-69
2023/02/11 01:52:27;;;;;;;;;;;;;;;6.29;100.00;103247.47;10442907;28;19920;-69
2023/02/11 01:57:30;;;;;;;;;;;;;;;6.10;100.00;103256.97;10461699;28;19920;-69
2023/02/11 02:02:47;;;;;;;;;;;;;;;6.13;100.00;103293.41;10460634;28;19924;-69
2023/02/11 02:07:49;;;;;;;;;;;;;;;6.25;100.00;103283.00;10459952;28;20537;-69
2023/02/11 02:12:52;;;;;;;;;;;;;;;6.22;100.00;103274.31;10419762;28;19925;-69
2023/02/11 02:18:09;;;;;;;;;;;;;;;6.06;100.00;103282.13;10420319;28;19932;-69
2023/02/11 02:23:20;;;;;;;;;;;;;;;6.03;100.00;103261.31;10452131;28;19927;-69
2023/02/11 02:28:55;;;;;;;;;;;;;;;6.07;100.00;103242.25;10458760;28;19921;-69
2023/02/11 02:34:01;;;;;;;;;;;;;;;5.98;100.00;103252.63;10416137;28;19925;-69
2023/02/11 02:39:08;;;;;;;;;;;;;;;6.00;100.00;103265.63;10458916;28;20360;-69
2023/02/11 02:44:10;;;;;;;;;;;;;;;5.93;100.00;103260.41;10459357;28;19928;-69
2023/02/11 02:49:13;;;;;;;;;;;;;;;5.89;100.00;103244.78;10458288;28;19921;-69
2023/02/11 02:54:27;;;;;;;;;;;;;;;5.76;100.00;103247.34;10457438;28;19921;-68
2023/02/11 02:59:48;;;;;;;;;;;;;;;5.75;100.00;103231.78;10458821;28;19924;-68
2023/02/11 03:04:52;;;;;;;;;;;;;;;5.73;100.00;103242.19;10457600;28;19921;-69
2023/02/11 03:09:57;;;;;;;;;;;;;;;5.69;100.00;103239.56;10458226;28;19921;-68
2023/02/11 03:15:00;;;;;;;;;;;;;;;5.75;100.00;103249.97;10458013;28;19924;-69
2023/02/11 03:20:03;;;;;;;;;;;;;;;5.74;100.00;103243.03;10458230;28;19975;-70
2023/02/11 03:25:06;;;;;;;;;;;;;;;5.74;100.00;103249.09;10457163;28;20318;-69
2023/02/11 03:30:11;;;;;;;;;;;;;;;5.75;100.00;103244.78;10457884;28;19921;-69
2023/02/11 03:35:14;;;;;;;;;;;;;;;5.95;100.00;103226.59;10457931;28;19920;-69
2023/02/11 03:40:21;;;;;;;;;;;;;;;5.81;100.00;103223.13;10456548;28;19994;-68
2023/02/11 03:45:23;;;;;;;;;;;;;;;5.57;100.00;103215.28;10455595;28;20280;-69
2023/02/11 03:50:25;;;;;;;;;;;;;;;5.57;100.00;103223.06;10457345;28;19925;-68
2023/02/11 03:55:27;;;;;;;;;;;;;;;5.62;100.00;103206.63;10456699;28;19929;-69
2023/02/11 04:00:39;;;;;;;;;;;;;;;5.70;100.00;103212.69;10454988;28;19920;-69
2023/02/11 04:05:42;;;;;;;;;;;;;;;5.69;100.00;103218.75;10457599;28;19924;-68
2023/02/11 04:10:44;;;;;;;;;;;;;;;5.61;100.00;103220.47;10456897;28;19924;-69
2023/02/11 04:15:46;;;;;;;;;;;;;;;5.64;100.00;103226.53;10456421;28;19928;-69
2023/02/11 04:20:50;;;;;;;;;;;;;;;5.71;100.00;103249.06;10457390;28;19974;-69
2023/02/11 04:25:52;;;;;;;;;;;;;;;5.76;100.00;103257.75;10456584;28;20364;-69
2023/02/11 04:30:55;;;;;;;;;;;;;;;5.78;100.00;103244.75;10455626;28;19920;-69
2023/02/11 04:35:57;;;;;;;;;;;;;;;5.61;100.00;103239.53;10456891;28;20015;-69
2023/02/11 04:40:59;;;;;;;;;;;;;;;5.71;100.00;103230.88;10456317;28;19975;-69
2023/02/11 04:46:01;;;;;;;;;;;;;;;5.68;100.00;103230.91;10455645;28;20276;-69
2023/02/11 04:51:03;;;;;;;;;;;;;;;5.76;100.00;103249.09;10456714;28;19927;-69
2023/02/11 04:56:06;;;;;;;;;;;;;;;5.72;100.00;103266.44;10456374;28;19927;-70
2023/02/11 05:01:08;;;;;;;;;;;;;;;5.84;100.00;103243.94;10454837;28;20367;-69
2023/02/11 05:06:11;;;;;;;;;;;;;;;5.80;100.00;103227.47;10455398;28;19924;-69
2023/02/11 05:11:14;;;;;;;;;;;;;;;5.69;100.00;103247.34;10454839;28;20331;-69
2023/02/11 05:16:17;;;;;;;;;;;;;;;5.67;100.00;103243.91;10420861;22;19928;-65
2023/02/11 05:21:19;;;;;;;;;;;;;;;5.73;100.00;103236.09;10397487;28;19928;-66
2023/02/11 05:26:22;;;;;;;;;;;;;;;5.81;100.00;103234.38;10397824;28;19921;-66
2023/02/11 05:31:24;;;;;;;;;;;;;;;5.71;100.00;103241.28;10403246;28;19928;-66
2023/02/11 05:36:26;;;;;;;;;;;;;;;5.98;100.00;103230.97;10421301;28;19921;-66
2023/02/11 05:41:28;;;;;;;;;;;;;;;5.80;100.00;103237.84;10421059;28;19925;-66
2023/02/11 05:46:31;;;;;;;;;;;;;;;5.91;100.00;103253.47;10421553;28;19921;-66
2023/02/11 05:51:33;;;;;;;;;;;;;;;5.79;100.00;103248.25;10420674;28;19928;-66
2023/02/11 05:56:35;;;;;;;;;;;;;;;5.84;100.00;103246.53;10420040;28;19925;-66
2023/02/11 06:01:38;;;;;;;;;;;;;;;5.92;100.00;103247.41;10420932;28;19925;-66
2023/02/11 06:06:41;;;;;;;;;;;;;;;5.83;100.00;103253.44;10420729;28;19925;-66
2023/02/11 06:11:43;;;;;;;;;;;;;;;5.83;100.00;103256.03;10419221;28;19921;-66
2023/02/11 06:16:45;;;;;;;;;;;;;;;5.86;100.00;103255.19;10418893;28;20360;-66
2023/02/11 06:21:47;;;;;;;;;;;;;;;5.86;100.00;103260.38;10420192;28;19921;-65
2023/02/11 06:26:50;;;;;;;;;;;;;;;5.85;100.00;103254.34;10419964;28;19928;-66
2023/02/11 06:31:52;;;;;;;;;;;;;;;5.89;100.00;103258.66;10419181;28;19921;-66
2023/02/11 06:36:54;;;;;;;;;;;;;;;6.03;100.00;103252.66;10399208;28;20368;-66
2023/02/11 06:41:56;;;;;;;;;;;;;;;6.05;100.00;103244.00;10417631;28;20323;-66
2023/02/11 06:46:59;;;;;;;;;;;;;;;5.88;100.00;103250.84;10418590;28;20296;-66
2023/02/11 06:52:02;;;;;;;;;;;;;;;5.97;100.00;103271.72;10418930;28;19925;-66
2023/02/11 06:57:04;;;;;;;;;;;;;;;6.23;100.00;103268.25;10418074;28;19921;-67
2023/02/11 07:02:08;;;;;;;;;;;;;;;6.05;100.00;103270.00;10418604;28;19925;-66
2023/02/11 07:07:10;;;;;;;;;;;;;;;6.09;100.00;103276.94;10417177;28;20017;-67
2023/02/11 07:12:12;;;;;;;;;;;;;;;6.00;100.00;103274.31;10417379;28;19921;-66
2023/02/11 07:17:14;;;;;;;;;;;;;;;6.03;100.00;103274.31;10417394;28;19921;-65
2023/02/11 07:22:17;;;;;;;;;;;;;;;6.16;100.00;103274.34;10417843;28;19964;-66
2023/02/11 07:27:19;;;;;;;;;;;;;;;6.15;100.00;103289.06;10417044;28;19975;-66
2023/02/11 07:32:21;;;;;;;;;;;;;;;6.21;100.00;103294.28;10415586;28;19948;-66
2023/02/11 07:37:23;;;;;;;;;;;;;;;6.16;100.00;103303.81;10415408;28;19921;-66
2023/02/11 07:42:25;;;;;;;;;;;;;;;6.22;100.00;103310.75;10416510;28;19943;-66
2023/02/11 07:47:28;;;;;;;;;;;;;;;6.33;100.00;103314.22;10416378;28;19921;-66
2023/02/11 07:52:30;;;;;;;;;;;;;;;6.31;100.00;103298.63;10415628;28;20004;-66
2023/02/11 07:57:32;;;;;;;;;;;;;;;6.38;100.00;103306.44;10415987;28;19992;-66
2023/02/11 08:02:34;;;;;;;;;;;;;;;6.63;100.00;103309.91;10415933;28;19921;-66
2023/02/11 08:07:36;;;;;;;;;;;;;;;6.53;100.00;103310.78;10416432;28;19921;-66
2023/02/11 08:12:39;;;;;;;;;;;;;;;6.54;100.00;103315.09;10415925;28;19921;-65
2023/02/11 08:17:41;;;;;;;;;;;;;;;6.58;100.00;103309.03;10414812;28;20438;-66
2023/02/11 08:22:43;;;;;;;;;;;;;;;6.50;100.00;103316.84;10415479;28;20356;-66
2023/02/11 08:27:45;;;;;;;;;;;;;;;6.60;100.00;103318.56;10415402;28;19921;-66
2023/02/11 08:32:48;;;;;;;;;;;;;;;6.51;100.00;103323.78;10415135;28;20257;-66
2023/02/11 08:37:50;;;;;;;;;;;;;;;6.59;100.00;103323.78;10415707;28;19924;-66
2023/02/11 08:42:53;;;;;;;;;;;;;;;6.63;100.00;103323.78;10414277;28;20368;-66
2023/02/11 08:47:55;;;;;;;;;;;;;;;6.83;100.00;103335.94;10414455;28;19967;-66
2023/02/11 08:52:57;;;;;;;;;;;;;;;6.74;100.00;103334.19;10415523;28;19971;-66
2023/02/11 08:57:59;;;;;;;;;;;;;;;6.70;100.00;103342.88;10414629;28;19925;-66
2023/02/11 09:03:01;;;;;;;;;;;;;;;6.90;100.00;103344.59;10419077;28;20426;-65
2023/02/11 09:08:03;;;;;;;;;;;;;;;6.85;100.00;103353.28;10422504;28;19921;-66
2023/02/11 09:13:06;;;;;;;;;;;;;;;6.96;100.00;103348.06;10421782;28;19948;-67
2023/02/11 09:18:08;;;;;;;;;;;;;;;7.05;100.00;103357.59;10385988;28;20257;-66
2023/02/11 09:23:11;;;;;;;;;;;;;;;7.01;100.00;103354.13;10385592;28;20295;-66
2023/02/11 09:28:13;;;;;;;;;;;;;;;7.29;100.00;103361.88;10397257;28;19922;-66
2023/02/11 09:33:16;;;;;;;;;;;;;;;7.49;100.00;103356.59;10386168;28;20008;-67
2023/02/11 09:38:18;;;;;;;;;;;;;;;7.42;100.00;103360.97;10397611;28;19972;-67
2023/02/11 09:43:24;;;;;;;;;;;;;;;7.37;100.00;103370.53;10384474;28;19921;-67
2023/02/11 09:48:26;;;;;;;;;;;;;;;7.77;100.00;103380.84;10396292;28;19922;-66
2023/02/11 09:53:30;;;;;;;;;;;;;;;7.78;100.00;103384.31;10384919;28;20292;-67
2023/02/11 09:58:36;;;;;;;;;;;;;;;7.93;100.00;103385.97;10384310;28;19921;-67
2023/02/11 10:03:51;;;;;;;;;;;;;;;7.92;100.00;103395.56;10395763;28;19925;-67
2023/02/11 10:08:53;;;;;;;;;;;;;;;7.99;100.00;103402.47;10412275;28;20434;-67
2023/02/11 10:14:08;;;;;;;;;;;;;;;8.22;100.00;103411.03;10418761;28;19940;-67
2023/02/11 10:19:28;;;;;;;;;;;;;;;8.02;100.00;103406.81;10416102;28;19971;-67
2023/02/11 10:24:31;;;;;;;;;;;;;;;8.38;100.00;103416.16;10418471;28;19928;-67
2023/02/11 10:29:41;;;;;;;;;;;;;;;8.37;100.00;103419.66;10400752;28;20483;-67
2023/02/11 10:34:43;;;;;;;;;;;;;;;8.44;100.00;103425.75;10401532;28;19921;-67
2023/02/11 10:39:45;;;;;;;;;;;;;;;8.50;100.00;103417.84;10419532;28;19921;-66
2023/02/11 10:44:58;;;;;;;;;;;;;;;8.47;100.00;103420.53;10418862;28;19921;-66
2023/02/11 10:50:02;;;;;;;;;;;;;;;8.85;100.00;103428.94;10418741;28;19921;-66
2023/02/11 10:55:13;;;;;;;;;;;;;;;8.68;100.00;103437.75;10400569;28;19974;-66
2023/02/11 11:00:27;;;;;;;;;;;;;;;8.82;100.00;103445.50;10399410;28;19921;-66
2023/02/11 11:05:36;;;;;;;;;;;;;;;8.58;100.00;103445.69;10412931;28;20384;-66
2023/02/11 11:10:43;;;;;;;;;;;;;;;8.41;100.00;103450.97;10399788;28;19975;-67
2023/02/11 11:15:45;;;;;;;;;;;;;;;8.67;100.00;103450.84;10417412;28;19921;-67
2023/02/11 11:21:00;;;;;;;;;;;;;;;9.14;100.00;103449.59;10417993;28;19921;-67
2023/02/11 11:26:02;;;;;;;;;;;;;;;9.25;100.00;103439.91;10398822;28;19921;-67
2023/02/11 11:31:12;;;;;;;;;;;;;;;9.56;100.00;103438.72;10416959;28;20364;-67
2023/02/11 11:36:16;;;;;;;;;;;;;;;9.46;100.00;103437.94;10399244;28;20394;-67
2023/02/11 11:41:25;;;;;;;;;;;;;;;9.42;100.00;103438.88;10397184;28;19975;-67
2023/02/11 11:46:29;;;;;;;;;;;;;;;9.24;100.00;103437.31;10396637;28;20004;-67
2023/02/11 11:51:31;;;;;;;;;;;;;;;9.47;100.00;103427.47;10393073;28;19921;-68
2023/02/11 11:56:35;;;;;;;;;;;;;;;9.71;100.00;103415.00;10391836;28;20038;-68
2023/02/11 12:01:44;;;;;;;;;;;;;;;9.52;100.00;103418.72;10400620;28;20388;-67
2023/02/11 12:06:47;;;;;;;;;;;;;;;9.83;100.00;103419.22;10399012;28;20020;-67
2023/02/11 12:11:58;;;;;;;;;;;;;;;9.76;100.00;103415.81;10405071;28;19929;-67
2023/02/11 12:17:02;;;;;;;;;;;;;;;9.84;100.00;103420.97;10376646;28;19925;-67
2023/02/11 12:22:12;;;;;;;;;;;;;;;10.32;100.00;103417.72;10411641;28;19928;-67
2023/02/11 12:27:32;;;;;;;;;;;;;;;10.21;99.49;103416.09;10397980;28;19921;-67
2023/02/11 12:32:38;;;;;;;;;;;;;;;10.67;99.10;103403.22;10397040;28;19921;-67
2023/02/11 12:37:41;;;;;;;;;;;;;;;10.31;95.73;103401.13;10417989;28;20331;-67
2023/02/11 12:48:21;;;;;;;;;;;;;;;11.95;90.33;103399.09;10422709;28;19921;-67
2023/02/11 12:53:26;;;;;;;;;;;;;;;11.58;84.54;103385.84;10405050;28;19921;-67
2023/02/11 12:58:29;;;;;;;;;;;;;;;10.99;89.27;103388.72;10421364;28;20265;-67
2023/02/11 13:03:45;;;;;;;;;;;;;;;12.35;87.22;103400.81;10405023;28;19921;-68
2023/02/11 13:08:55;;;;;;;;;;;;;;;11.34;86.74;103404.66;10419374;28;19921;-68
2023/02/11 13:13:59;;;;;;;;;;;;;;;11.42;87.35;103398.41;10397719;28;20372;-68
2023/02/11 13:19:14;;;;;;;;;;;;;;;12.99;83.39;103377.34;10401067;28;19921;-68
2023/02/11 13:24:16;;;;;;;;;;;;;;;12.71;81.15;103394.69;10420384;28;20334;-68
2023/02/11 13:29:27;;;;;;;;;;;;;;;11.59;84.63;103396.31;10421186;28;19946;-68
2023/02/11 13:34:42;;;;;;;;;;;;;;;11.57;89.01;103385.00;10421450;28;19978;-69
2023/02/11 13:39:57;;;;;;;;;;;;;;;11.92;87.58;103378.16;10421166;28;19979;-68
2023/02/11 13:44:59;;;;;;;;;;;;;;;10.98;88.40;103377.38;10403447;28;19925;-68
2023/02/11 13:50:02;;;;;;;;;;;;;;;11.41;88.07;103373.06;10400464;28;19925;-68
2023/02/11 13:55:13;;;;;;;;;;;;;;;11.50;89.22;103381.63;10403833;28;19920;-68
2023/02/11 14:00:38;;;;;;;;;;;;;;;11.37;87.22;103381.91;10403065;28;19944;-68
2023/02/11 14:11:11;;;;;;;;;;;;;;;10.88;90.82;103381.91;10419860;28;19944;-67
2023/02/11 14:16:13;;;;;;;;;;;;;;;10.96;91.29;103380.03;10403356;28;19928;-66
2023/02/11 14:21:28;;;;;;;;;;;;;;;10.72;90.98;103390.91;10419785;28;19932;-66
2023/02/11 14:26:40;;;;;;;;;;;;;;;10.92;89.88;103391.44;10419515;28;20288;-66
2023/02/11 14:31:57;;;;;;;;;;;;;;;10.93;91.89;103387.06;10402412;28;19928;-66
2023/02/11 14:37:02;;;;;;;;;;;;;;;10.47;93.66;103395.69;10419044;28;19976;-66
2023/02/11 14:42:04;;;;;;;;;;;;;;;10.56;93.28;103395.56;10385406;28;19921;-66
2023/02/11 14:47:10;;;;;;;;;;;;;;;10.85;93.05;103397.69;10419412;28;19928;-67
2023/02/11 14:52:12;;;;;;;;;;;;;;;10.41;94.70;103400.13;10401037;28;19971;-66
2023/02/11 14:57:18;;;;;;;;;;;;;;;10.42;94.82;103403.59;10418875;28;19921;-66
2023/02/11 15:02:21;;;;;;;;;;;;;;;10.05;97.03;103401.47;10417709;28;19921;-68
2023/02/11 15:07:24;;;;;;;;;;;;;;;10.42;95.49;103408.84;10417558;28;19975;-68
2023/02/11 15:12:26;;;;;;;;;;;;;;;10.27;95.57;103419.50;10412917;28;20343;-68
2023/02/11 15:17:29;;;;;;;;;;;;;;;10.28;97.20;103423.88;10415659;28;19928;-67
2023/02/11 15:22:38;;;;;;;;;;;;;;;9.90;97.78;103428.75;10532437;27;19912;-66
2023/02/11 15:27:42;;;;;;;;;;;;;;;10.22;98.52;103437.91;10553513;22;19929;-65
2023/02/11 15:32:44;;;;;;;;;;;;;;;10.41;96.50;103439.41;10408711;28;19925;-65
2023/02/11 15:37:46;;;;;;;;;;;;;;;9.76;100.00;103441.13;10410460;28;19929;-64
2023/02/11 15:43:01;;;;;;;;;;;;;;;9.99;100.00;103443.47;10408600;28;19964;-65
2023/02/11 15:48:18;;;;;;;;;;;;;;;9.89;100.00;103440.09;10409544;28;19926;-65
2023/02/11 15:53:41;;;;;;;;;;;;;;;9.90;100.00;103443.56;10409934;28;19929;-65
2023/02/11 15:58:44;;;;;;;;;;;;;;;9.69;100.00;103434.22;10409170;28;19925;-65
2023/02/11 16:03:48;;;;;;;;;;;;;;;9.48;100.00;103434.44;10408220;28;19929;-65
2023/02/11 16:09:12;;;;;;;;;;;;;;;9.65;100.00;103438.63;10408098;28;19930;-65
2023/02/11 16:14:30;;;;;;;;;;;;;;;9.57;100.00;103443.94;10409043;28;19930;-65
2023/02/11 16:19:33;;;;;;;;;;;;;;;9.57;100.00;103443.94;10408169;28;19948;-65
2023/02/11 16:24:35;;;;;;;;;;;;;;;9.30;100.00;103438.09;10406901;28;19933;-65
2023/02/11 16:29:38;;;;;;;;;;;;;;;9.24;100.00;103443.38;10404576;28;19925;-65
2023/02/11 16:34:40;;;;;;;;;;;;;;;9.14;100.00;103454.81;10381076;28;19929;-65
2023/02/11 16:39:42;;;;;;;;;;;;;;;9.10;100.00;103453.13;10380799;28;19929;-65
2023/02/11 16:44:44;;;;;;;;;;;;;;;8.77;100.00;103456.88;10380619;28;19933;-65
2023/02/11 16:49:46;;;;;;;;;;;;;;;8.85;100.00;103465.50;10379796;28;19930;-65
2023/02/11 16:54:49;;;;;;;;;;;;;;;8.63;100.00;103472.63;10379355;28;19926;-65
2023/02/11 16:59:51;;;;;;;;;;;;;;;8.60;100.00;103483.97;10378644;28;19941;-65
2023/02/11 17:04:54;;;;;;;;;;;;;;;8.65;100.00;103487.41;10378654;28;19925;-65
2023/02/11 17:09:56;;;;;;;;;;;;;;;8.53;100.00;103487.50;10375211;28;19940;-65
2023/02/11 17:14:58;;;;;;;;;;;;;;;8.38;100.00;103488.41;10345441;28;19925;-65
2023/02/11 17:20:01;;;;;;;;;;;;;;;8.20;100.00;103494.56;10379337;28;19925;-65
2023/02/11 17:25:03;;;;;;;;;;;;;;;8.19;100.00;103504.16;10378180;28;19925;-65
2023/02/11 17:30:06;;;;;;;;;;;;;;;8.25;100.00;103516.28;10360410;28;19926;-65
2023/02/11 17:35:08;;;;;;;;;;;;;;;8.31;100.00;103520.66;10377033;28;19929;-65
2023/02/11 17:40:11;;;;;;;;;;;;;;;8.25;100.00;103529.34;10376874;28;19957;-65
2023/02/11 17:45:13;;;;;;;;;;;;;;;8.14;100.00;103525.94;10376805;28;19925;-65
2023/02/11 17:50:15;;;;;;;;;;;;;;;8.10;100.00;103522.47;10359984;28;19925;-65
2023/02/11 17:55:17;;;;;;;;;;;;;;;8.09;100.00;103527.69;10377990;28;19972;-65
2023/02/11 18:00:21;;;;;;;;;;;;;;;7.92;100.00;103531.22;10359676;28;19925;-65
2023/02/11 18:05:26;;;;;;;;;;;;;;;7.95;100.00;103541.66;10376604;28;19972;-65
2023/02/11 18:10:28;;;;;;;;;;;;;;;7.96;100.00;103543.34;10376734;28;19930;-65
2023/02/11 18:15:32;;;;;;;;;;;;;;;7.88;100.00;103544.25;10376634;28;20300;-65
2023/02/11 18:20:34;;;;;;;;;;;;;;;7.77;100.00;103547.75;10359653;28;19929;-65
2023/02/11 18:25:36;;;;;;;;;;;;;;;7.73;100.00;103566.00;10366195;28;19934;-65
2023/02/11 18:30:39;;;;;;;;;;;;;;;7.85;100.00;103565.13;10350629;28;19926;-65
2023/02/11 18:35:41;;;;;;;;;;;;;;;7.81;100.00;103569.47;10356588;28;19926;-65
2023/02/11 18:40:46;;;;;;;;;;;;;;;7.87;100.00;103574.69;10374188;28;19972;-65
2023/02/11 18:45:49;;;;;;;;;;;;;;;8.06;100.00;103578.13;10375591;28;19925;-65
2023/02/11 18:50:52;;;;;;;;;;;;;;;8.06;100.00;103574.66;10375185;28;19929;-65
2023/02/11 18:55:54;;;;;;;;;;;;;;;8.08;100.00;103573.78;10375020;28;19926;-65
2023/02/11 19:00:56;;;;;;;;;;;;;;;8.19;100.00;103590.28;10374334;28;20024;-65
2023/02/11 19:05:58;;;;;;;;;;;;;;;8.09;100.00;103593.78;10373430;28;19933;-65
2023/02/11 19:11:02;;;;;;;;;;;;;;;8.13;100.00;103597.25;10374942;28;19929;-65
2023/02/11 19:16:08;;;;;;;;;;;;;;;8.13;100.00;103607.69;10375477;28;19926;-65
2023/02/11 19:21:12;;;;;;;;;;;;;;;8.26;100.00;103608.53;10374290;28;19926;-65
2023/02/11 19:26:14;;;;;;;;;;;;;;;8.11;100.00;103602.47;10375285;28;19925;-65
2023/02/11 19:31:17;;;;;;;;;;;;;;;8.37;100.00;103622.41;10359064;28;19930;-65
2023/02/11 19:36:20;;;;;;;;;;;;;;;8.16;100.00;103639.88;10352740;28;19968;-65
2023/02/11 19:41:22;;;;;;;;;;;;;;;8.17;100.00;103631.19;10340427;28;19975;-65
2023/02/11 19:46:25;;;;;;;;;;;;;;;8.24;100.00;103629.44;10372133;28;20351;-65
2023/02/11 19:51:27;;;;;;;;;;;;;;;8.23;100.00;103634.66;10340822;28;20308;-65
2023/02/11 19:56:30;;;;;;;;;;;;;;;8.29;100.00;103638.13;10373036;28;19925;-65
2023/02/11 20:01:32;;;;;;;;;;;;;;;8.27;100.00;103639.88;10356481;28;20376;-65
2023/02/11 20:06:34;;;;;;;;;;;;;;;8.37;100.00;103628.53;10374767;28;19932;-65
2023/02/11 20:11:37;;;;;;;;;;;;;;;8.38;100.00;103643.28;10382059;28;19929;-65
2023/02/11 20:16:40;;;;;;;;;;;;;;;8.28;100.00;103656.38;10362446;28;19933;-65
2023/02/11 20:21:51;;;;;;;;;;;;;;;8.30;100.00;103650.28;10364785;28;19994;-65
2023/02/11 20:26:56;;;;;;;;;;;;;;;8.32;100.00;103655.50;10379930;28;19979;-65
2023/02/11 20:31:59;;;;;;;;;;;;;;;8.35;100.00;103666.81;10380533;28;19980;-65
2023/02/11 20:37:02;;;;;;;;;;;;;;;8.44;100.00;103663.34;10380354;28;20013;-65
2023/02/11 20:42:07;;;;;;;;;;;;;;;8.32;100.00;103665.94;10361437;28;20403;-65
2023/02/11 20:47:10;;;;;;;;;;;;;;;8.19;100.00;103665.97;10339526;28;20372;-65
2023/02/11 20:52:12;;;;;;;;;;;;;;;8.28;100.00;103672.03;10322051;28;20336;-65
2023/02/11 20:57:15;;;;;;;;;;;;;;;8.35;100.00;103669.44;10343229;28;19988;-65
2023/02/11 21:02:17;;;;;;;;;;;;;;;8.26;100.00;103677.25;10379198;28;19942;-65
2023/02/11 21:07:19;;;;;;;;;;;;;;;8.38;100.00;103692.03;10379373;28;19952;-65
2023/02/11 21:12:21;;;;;;;;;;;;;;;8.06;100.00;103692.94;10379713;28;19926;-65
2023/02/11 21:17:26;;;;;;;;;;;;;;;8.13;100.00;103696.41;10378261;28;19925;-66
2023/02/11 21:22:29;;;;;;;;;;;;;;;8.18;100.00;103700.75;10378534;28;19925;-65
2023/02/11 21:27:32;;;;;;;;;;;;;;;8.22;100.00;103709.47;10361155;28;19933;-66
2023/02/11 21:32:34;;;;;;;;;;;;;;;8.30;100.00;103707.69;10377276;28;19925;-65
2023/02/11 21:37:36;;;;;;;;;;;;;;;8.11;100.00;103709.47;10361372;28;19933;-65
2023/02/11 21:42:39;;;;;;;;;;;;;;;8.23;100.00;103720.78;10360628;28;19925;-65
2023/02/11 21:47:41;;;;;;;;;;;;;;;8.16;100.00;103723.38;10378358;28;19975;-66
2023/02/11 21:52:43;;;;;;;;;;;;;;;8.26;100.00;103729.47;10377570;28;20265;-66
2023/02/11 21:57:46;;;;;;;;;;;;;;;7.91;100.00;103725.13;10370566;28;19926;-65
2023/02/11 22:02:48;;;;;;;;;;;;;;;7.90;100.00;103725.13;10369944;28;19933;-66
2023/02/11 22:07:50;;;;;;;;;;;;;;;7.90;100.00;103715.56;10376687;28;19975;-66
2023/02/11 22:12:53;;;;;;;;;;;;;;;7.94;100.00;103724.25;10375853;28;20339;-65
2023/02/11 22:17:55;;;;;;;;;;;;;;;7.94;100.00;103719.03;10374208;28;20500;-66
2023/02/11 22:22:57;;;;;;;;;;;;;;;7.90;100.00;103715.56;10376194;28;20381;-65
2023/02/11 22:27:59;;;;;;;;;;;;;;;7.74;100.00;103726.84;10375055;28;19971;-66
2023/02/11 22:33:04;;;;;;;;;;;;;;;7.80;100.00;103730.34;10375826;28;19932;-65
2023/02/11 22:38:06;;;;;;;;;;;;;;;7.77;100.00;103739.91;10358552;28;19925;-65
2023/02/11 22:43:09;;;;;;;;;;;;;;;7.88;100.00;103729.47;10376126;28;19932;-65
2023/02/11 22:48:11;;;;;;;;;;;;;;;7.74;100.00;103737.28;10358763;28;19926;-65
2023/02/11 22:53:13;;;;;;;;;;;;;;;7.89;100.00;103736.44;10374607;28;19929;-65
2023/02/11 22:58:15;;;;;;;;;;;;;;;7.95;100.00;103733.81;10375298;28;20360;-66
2023/02/11 23:03:18;;;;;;;;;;;;;;;7.99;100.00;103736.44;10358230;28;19925;-66
2023/02/11 23:08:20;;;;;;;;;;;;;;;7.96;100.00;103735.56;10373190;28;19996;-65
2023/02/11 23:13:22;;;;;;;;;;;;;;;7.92;100.00;103731.22;10374224;28;19933;-65
2023/02/11 23:18:24;;;;;;;;;;;;;;;7.87;100.00;103732.94;10357961;28;19926;-65
2023/02/11 23:23:27;;;;;;;;;;;;;;;8.09;100.00;103744.28;10375231;28;19975;-65
2023/02/11 23:28:29;;;;;;;;;;;;;;;7.82;100.00;103739.03;10372942;28;19941;-66
2023/02/11 23:33:31;;;;;;;;;;;;;;;7.88;100.00;103742.50;10375139;28;19967;-65
2023/02/11 23:38:33;;;;;;;;;;;;;;;7.79;100.00;103740.78;10373473;28;19933;-65
2023/02/11 23:43:36;;;;;;;;;;;;;;;8.05;100.00;103747.75;10381591;28;19933;-65
2023/02/11 23:48:39;;;;;;;;;;;;;;;7.90;100.00;103746.00;10383020;28;19926;-65
2023/02/11 23:53:41;;;;;;;;;;;;;;;7.98;100.00;103741.66;10382134;28;19968;-65
2023/02/11 23:58:45;;;;;;;;;;;;;;;7.86;100.00;103741.66;10364559;28;19987;-65
